createdAt,value
2018-09-25T00:02:23.515Z,57.84
2018-09-25T00:04:57.138Z,58.00
2018-09-25T00:07:30.669Z,58.85
2018-09-25T00:10:04.196Z,58.76
2018-09-25T00:12:38.119Z,58.97
2018-09-25T00:15:11.952Z,59.38
2018-09-25T00:17:45.558Z,59.75
2018-09-25T00:20:19.024Z,59.78
2018-09-25T00:22:52.677Z,60.01
2018-09-25T00:25:26.422Z,59.76
2018-09-25T00:27:59.940Z,59.49
2018-09-25T00:30:33.667Z,59.65
2018-09-25T00:33:07.178Z,59.78
2018-09-25T00:35:40.955Z,59.86
2018-09-25T00:38:14.509Z,59.82
2018-09-25T00:40:48.220Z,59.35
2018-09-25T00:43:21.998Z,60.17
2018-09-25T00:45:55.714Z,60.22
2018-09-25T00:48:29.283Z,60.46
2018-09-25T00:51:02.924Z,60.31
2018-09-25T00:53:36.438Z,60.54
2018-09-25T00:56:10.052Z,60.32
2018-09-25T00:58:43.549Z,60.76
2018-09-25T01:01:17.289Z,60.51
2018-09-25T01:03:50.978Z,60.69
2018-09-25T01:06:24.732Z,60.92
2018-09-25T01:08:58.532Z,60.80
2018-09-25T01:11:32.112Z,60.39
2018-09-25T01:14:05.738Z,60.40
2018-09-25T01:16:39.461Z,60.39
2018-09-25T01:19:13.025Z,61.44
2018-09-25T01:21:46.749Z,61.36
2018-09-25T01:24:20.334Z,61.66
2018-09-25T01:26:53.917Z,61.83
2018-09-25T01:29:27.607Z,62.37
2018-09-25T01:32:01.182Z,62.44
2018-09-25T01:34:34.703Z,62.74
2018-09-25T01:37:08.637Z,62.43
2018-09-25T01:39:42.301Z,62.37
2018-09-25T01:45:03.019Z,62.60
2018-09-25T01:47:36.520Z,62.53
2018-09-25T01:50:10.389Z,62.58
2018-09-25T01:52:44.037Z,62.69
2018-09-25T01:55:17.761Z,62.49
2018-09-25T01:57:51.517Z,62.65
2018-09-25T02:00:25.435Z,62.93
2018-09-25T02:02:58.977Z,62.91
2018-09-25T02:05:32.735Z,63.14
2018-09-25T02:08:06.421Z,63.02
2018-09-25T02:10:40.125Z,62.68
2018-09-25T02:13:13.776Z,62.91
2018-09-25T02:15:47.406Z,62.90
2018-09-25T02:18:20.979Z,63.05
2018-09-25T02:20:54.651Z,62.67
2018-09-25T02:23:28.496Z,62.90
2018-09-25T02:26:02.030Z,62.53
2018-09-25T02:28:35.747Z,62.75
2018-09-25T02:31:09.695Z,62.74
2018-09-25T02:33:43.432Z,63.08
2018-09-25T02:36:17.109Z,63.44
2018-09-25T02:38:50.753Z,63.79
2018-09-25T02:41:24.365Z,63.46
2018-09-25T02:43:57.973Z,63.56
2018-09-25T02:46:31.597Z,63.75
2018-09-25T02:49:05.187Z,64.06
2018-09-25T02:51:38.844Z,64.03
2018-09-25T02:54:12.553Z,64.16
2018-09-25T02:56:46.299Z,63.81
2018-09-25T02:59:20.006Z,64.16
2018-09-25T03:01:53.647Z,64.18
2018-09-25T03:04:27.399Z,64.08
2018-09-25T03:07:01.211Z,64.36
2018-09-25T03:09:34.938Z,64.23
2018-09-25T03:12:08.602Z,64.30
2018-09-25T03:14:42.419Z,64.13
2018-09-25T03:17:16.189Z,63.89
2018-09-25T03:19:49.953Z,64.32
2018-09-25T03:22:23.553Z,64.43
2018-09-25T03:24:57.460Z,64.57
2018-09-25T03:27:31.106Z,64.97
2018-09-25T03:30:04.693Z,64.67
2018-09-25T03:32:38.345Z,65.04
2018-09-25T03:35:12.009Z,64.99
2018-09-25T03:37:45.597Z,65.23
2018-09-25T03:40:19.186Z,65.57
2018-09-25T03:42:52.919Z,65.46
2018-09-25T03:45:26.527Z,65.27
2018-09-25T03:48:00.281Z,65.29
2018-09-25T03:50:34.063Z,65.44
2018-09-25T03:53:07.803Z,65.49
2018-09-25T03:55:41.554Z,65.19
2018-09-25T03:58:15.273Z,65.17
2018-09-25T04:00:48.845Z,65.07
2018-09-25T04:03:22.383Z,64.72
2018-09-25T04:05:56.099Z,64.51
2018-09-25T04:08:29.656Z,64.54
2018-09-25T04:11:03.376Z,64.81
2018-09-25T04:13:37.087Z,64.55
2018-09-25T04:16:10.720Z,65.15
2018-09-25T04:18:44.689Z,65.08
2018-09-25T04:21:18.522Z,65.46
2018-09-25T04:23:52.139Z,65.09
2018-09-25T04:26:25.885Z,65.54
2018-09-25T04:28:59.493Z,65.70
2018-09-25T04:31:33.109Z,65.81
2018-09-25T04:34:06.825Z,65.87
2018-09-25T04:36:40.450Z,65.91
2018-09-25T04:39:14.801Z,64.87
2018-09-25T04:41:54.525Z,65.04
2018-09-25T04:44:28.129Z,64.51
2018-09-25T04:47:01.638Z,65.05
2018-09-25T04:49:35.309Z,64.85
2018-09-25T04:52:08.891Z,65.16
2018-09-25T04:54:42.515Z,65.28
2018-09-25T04:57:16.146Z,65.72
2018-09-25T04:59:49.881Z,65.24
2018-09-25T05:02:23.551Z,65.37
2018-09-25T05:04:57.014Z,65.48
2018-09-25T05:07:30.767Z,65.48
2018-09-25T05:10:04.395Z,65.30
2018-09-25T05:12:38.229Z,64.78
2018-09-25T05:15:11.984Z,64.75
2018-09-25T05:17:45.697Z,64.98
2018-09-25T05:20:19.246Z,64.87
2018-09-25T05:22:53.334Z,64.64
2018-09-25T05:25:27.269Z,64.92
2018-09-25T05:28:01.782Z,64.76
2018-09-25T05:30:35.295Z,64.65
2018-09-25T05:33:10.036Z,64.54
2018-09-25T05:35:43.635Z,64.58
2018-09-25T05:38:17.450Z,64.64
2018-09-25T05:40:51.299Z,64.47
2018-09-25T05:43:25.045Z,64.65
2018-09-25T05:45:58.811Z,64.34
2018-09-25T05:48:32.562Z,64.43
2018-09-25T05:51:06.237Z,64.27
2018-09-25T05:53:40.330Z,64.54
2018-09-25T05:56:14.059Z,64.83
2018-09-25T05:58:47.613Z,64.70
2018-09-25T06:01:21.313Z,65.09
2018-09-25T06:03:55.032Z,65.02
2018-09-25T06:06:28.565Z,65.17
2018-09-25T06:09:02.263Z,65.09
2018-09-25T06:11:35.891Z,65.72
2018-09-25T06:14:09.761Z,65.27
2018-09-25T06:16:43.352Z,65.32
2018-09-25T06:19:17.094Z,65.47
2018-09-25T06:21:50.701Z,65.24
2018-09-25T06:24:24.470Z,65.43
2018-09-25T06:26:58.072Z,65.49
2018-09-25T06:29:31.869Z,65.20
2018-09-25T06:32:05.436Z,65.29
2018-09-25T06:34:39.126Z,64.99
2018-09-25T06:37:12.852Z,65.13
2018-09-25T06:39:46.334Z,65.03
2018-09-25T06:42:19.908Z,65.19
2018-09-25T06:44:53.518Z,64.11
2018-09-25T06:47:27.345Z,63.51
2018-09-25T06:50:01.143Z,63.25
2018-09-25T06:52:34.835Z,62.62
2018-09-25T06:55:08.560Z,62.88
2018-09-25T06:57:42.154Z,62.62
2018-09-25T07:00:15.753Z,62.66
2018-09-25T07:02:49.341Z,61.66
2018-09-25T07:05:23.064Z,61.55
2018-09-25T07:07:56.485Z,60.78
2018-09-25T07:10:30.141Z,60.30
2018-09-25T07:13:03.773Z,59.77
2018-09-25T07:15:37.395Z,59.94
2018-09-25T07:18:11.122Z,59.82
2018-09-25T07:20:44.908Z,59.14
2018-09-25T07:23:18.595Z,58.46
2018-09-25T07:25:52.084Z,57.99
2018-09-25T07:28:25.896Z,57.81
2018-09-25T07:31:01.048Z,57.59
2018-09-25T07:33:34.654Z,56.80
2018-09-25T07:36:08.135Z,56.68
2018-09-25T07:38:41.773Z,56.10
2018-09-25T07:41:15.626Z,56.18
2018-09-25T07:43:49.154Z,56.33
2018-09-25T07:46:22.940Z,54.88
2018-09-25T07:48:56.510Z,54.17
2018-09-25T07:51:30.106Z,54.13
2018-09-25T07:54:03.717Z,54.84
2018-09-25T07:56:37.327Z,54.62
2018-09-25T07:59:10.917Z,54.95
2018-09-25T08:01:44.638Z,54.68
2018-09-25T08:04:18.501Z,54.43
2018-09-25T08:06:52.144Z,54.45
2018-09-25T08:09:25.673Z,53.47
2018-09-25T08:11:59.328Z,53.58
2018-09-25T08:14:35.226Z,54.50
2018-09-25T08:17:08.842Z,53.79
2018-09-25T08:19:42.487Z,53.05
2018-09-25T08:22:15.983Z,52.13
2018-09-25T08:24:49.606Z,52.71
2018-09-25T08:27:23.238Z,52.68
2018-09-25T08:29:56.814Z,52.84
2018-09-25T08:32:30.362Z,52.30
2018-09-25T08:35:04.078Z,52.45
2018-09-25T08:37:37.812Z,50.17
2018-09-25T08:40:11.431Z,49.57
2018-09-25T08:42:45.153Z,49.43
2018-09-25T08:45:18.832Z,48.85
2018-09-25T08:47:52.422Z,49.94
2018-09-25T08:50:26.090Z,48.91
2018-09-25T08:52:59.779Z,48.76
2018-09-25T08:55:33.413Z,48.05
2018-09-25T08:58:07.092Z,46.60
2018-09-25T09:00:40.854Z,47.19
2018-09-25T09:03:14.667Z,47.90
2018-09-25T09:05:48.455Z,47.64
2018-09-25T09:08:22.167Z,47.76
2018-09-25T09:10:55.786Z,46.70
2018-09-25T09:13:29.332Z,46.89
2018-09-25T09:16:02.956Z,46.44
2018-09-25T09:18:36.800Z,46.29
2018-09-25T09:21:10.395Z,47.51
2018-09-25T09:23:44.139Z,45.97
2018-09-25T09:26:17.905Z,45.90
2018-09-25T09:28:51.506Z,46.23
2018-09-25T09:31:25.236Z,45.83
2018-09-25T09:33:59.041Z,45.36
2018-09-25T09:36:33.012Z,45.93
2018-09-25T09:39:06.683Z,46.57
2018-09-25T09:41:40.494Z,46.18
2018-09-25T09:44:14.520Z,46.12
2018-09-25T09:46:48.263Z,46.05
2018-09-25T09:49:22.132Z,46.15
2018-09-25T09:51:55.898Z,45.99
2018-09-25T09:54:29.816Z,45.93
2018-09-25T09:57:03.560Z,45.35
2018-09-25T09:59:37.406Z,44.40
2018-09-25T10:02:11.340Z,43.86
2018-09-25T10:04:45.015Z,43.88
2018-09-25T10:07:18.807Z,43.63
2018-09-25T10:09:52.508Z,43.77
2018-09-25T10:12:26.181Z,44.11
2018-09-25T10:14:59.782Z,43.80
2018-09-25T10:17:33.771Z,43.25
2018-09-25T10:20:07.456Z,42.94
2018-09-25T10:22:41.382Z,42.51
2018-09-25T10:25:15.191Z,42.02
2018-09-25T10:27:49.097Z,41.77
2018-09-25T10:30:22.834Z,42.40
2018-09-25T10:32:56.688Z,41.70
2018-09-25T10:35:30.363Z,42.17
2018-09-25T10:38:03.995Z,41.96
2018-09-25T10:40:37.577Z,41.67
2018-09-25T10:43:11.274Z,41.27
2018-09-25T10:45:45.040Z,40.90
2018-09-25T10:48:18.867Z,40.43
2018-09-25T10:50:52.530Z,40.03
2018-09-25T10:53:26.187Z,39.62
2018-09-25T10:56:00.158Z,40.88
2018-09-25T10:58:33.776Z,40.64
2018-09-25T11:01:07.442Z,39.73
2018-09-25T11:03:40.923Z,39.25
2018-09-25T11:06:14.680Z,39.76
2018-09-25T11:08:48.409Z,39.94
2018-09-25T11:11:22.201Z,38.99
2018-09-25T11:13:55.842Z,38.37
2018-09-25T11:16:29.730Z,39.70
2018-09-25T11:19:03.522Z,39.39
2018-09-25T11:21:37.403Z,40.05
2018-09-25T11:24:11.052Z,40.25
2018-09-25T11:26:45.188Z,41.31
2018-09-25T11:29:18.761Z,40.97
2018-09-25T11:31:52.474Z,41.42
2018-09-25T11:34:26.268Z,41.58
2018-09-25T11:37:00.132Z,41.55
2018-09-25T11:39:33.842Z,42.14
2018-09-25T11:42:07.669Z,41.76
2018-09-25T11:44:41.446Z,41.92
2018-09-25T11:47:15.336Z,41.50
2018-09-25T11:49:49.079Z,41.82
2018-09-25T11:52:22.853Z,41.47
2018-09-25T11:54:56.374Z,40.15
2018-09-25T11:57:36.800Z,39.76
2018-09-25T12:00:10.711Z,38.68
2018-09-25T12:02:44.449Z,39.09
2018-09-25T12:05:18.179Z,38.07
2018-09-25T12:07:52.025Z,39.02
2018-09-25T12:10:25.901Z,39.33
2018-09-25T12:12:59.964Z,39.83
2018-09-25T12:15:33.655Z,40.00
2018-09-25T12:18:07.553Z,39.59
2018-09-25T12:20:41.219Z,39.20
2018-09-25T12:23:15.065Z,37.95
2018-09-25T12:25:48.765Z,37.92
2018-09-25T12:28:22.520Z,38.54
2018-09-25T12:30:56.180Z,38.70
2018-09-25T12:33:30.275Z,39.47
2018-09-25T12:36:03.962Z,38.45
2018-09-25T12:38:38.062Z,38.26
2018-09-25T12:41:12.028Z,37.90
2018-09-25T12:43:45.959Z,37.84
2018-09-25T12:46:19.633Z,37.56
2018-09-25T12:48:53.528Z,38.54
2018-09-25T12:51:27.443Z,39.42
2018-09-25T12:54:01.293Z,39.66
2018-09-25T12:56:35.142Z,39.90
2018-09-25T12:59:08.862Z,39.20
2018-09-25T13:01:42.766Z,40.47
2018-09-25T13:04:16.796Z,40.60
2018-09-25T13:06:51.017Z,40.59
2018-09-25T13:09:26.292Z,39.82
2018-09-25T13:12:01.021Z,40.98
2018-09-25T13:14:36.250Z,40.07
2018-09-25T13:17:10.840Z,39.86
2018-09-25T13:19:45.085Z,40.95
2018-09-25T13:22:18.776Z,41.23
2018-09-25T13:24:52.370Z,41.55
2018-09-25T13:27:26.093Z,41.75
2018-09-25T13:29:59.920Z,39.38
2018-09-25T13:32:33.599Z,39.47
2018-09-25T13:35:07.261Z,39.08
2018-09-25T13:37:41.057Z,39.74
2018-09-25T13:40:14.880Z,39.39
2018-09-25T13:42:48.530Z,39.86
2018-09-25T13:45:22.590Z,39.45
2018-09-25T13:47:56.381Z,41.03
2018-09-25T13:50:30.245Z,41.01
2018-09-25T13:53:04.010Z,40.66
2018-09-25T13:55:37.894Z,41.26
2018-09-25T13:58:11.506Z,41.04
2018-09-25T14:00:45.518Z,40.56
2018-09-25T14:03:19.395Z,40.96
2018-09-25T14:05:53.017Z,40.62
2018-09-25T14:08:26.636Z,40.38
2018-09-25T14:11:00.745Z,40.32
2018-09-25T14:13:34.662Z,40.62
2018-09-25T14:16:08.312Z,40.78
2018-09-25T14:18:42.159Z,39.78
2018-09-25T14:21:16.056Z,40.52
2018-09-25T14:23:49.840Z,40.38
2018-09-25T14:26:23.632Z,40.88
2018-09-25T14:28:57.500Z,41.56
2018-09-25T14:31:31.384Z,41.61
2018-09-25T14:34:05.366Z,41.04
2018-09-25T14:36:39.238Z,40.89
2018-09-25T14:46:25.211Z,41.92
2018-09-25T14:48:58.928Z,42.09
2018-09-25T14:51:32.560Z,42.37
2018-09-25T14:54:06.745Z,42.47
2018-09-25T14:56:40.575Z,42.59
2018-09-25T14:59:14.538Z,43.03
2018-09-25T15:01:48.243Z,41.99
2018-09-25T15:04:21.868Z,41.30
2018-09-25T15:06:56.135Z,41.30
2018-09-25T15:09:29.897Z,41.54
2018-09-25T15:12:03.848Z,41.89
2018-09-25T15:14:37.723Z,41.75
2018-09-25T15:17:12.055Z,42.01
2018-09-25T15:19:46.018Z,42.95
2018-09-25T15:22:20.127Z,42.78
2018-09-25T15:24:53.934Z,42.21
2018-09-25T15:27:27.963Z,42.50
2018-09-25T15:30:01.738Z,42.25
2018-09-25T15:32:35.571Z,41.66
2018-09-25T15:35:09.309Z,41.44
2018-09-25T15:37:43.229Z,41.95
2018-09-25T15:40:17.138Z,41.61
2018-09-25T15:42:50.898Z,41.55
2018-09-25T15:45:24.550Z,40.72
2018-09-25T15:47:58.754Z,41.40
2018-09-25T15:50:32.521Z,41.42
2018-09-25T15:53:06.328Z,42.23
2018-09-25T15:55:40.105Z,42.40
2018-09-25T15:58:15.006Z,42.83
2018-09-25T16:00:48.777Z,43.41
2018-09-25T16:03:22.474Z,43.44
2018-09-25T16:05:56.219Z,43.47
2018-09-25T16:08:30.052Z,43.67
2018-09-25T16:11:04.014Z,44.11
2018-09-25T16:13:37.796Z,44.09
2018-09-25T16:16:12.078Z,43.87
2018-09-25T16:18:45.775Z,44.24
2018-09-25T16:21:19.734Z,44.49
2018-09-25T16:23:53.827Z,44.91
2018-09-25T16:26:27.699Z,45.38
2018-09-25T16:29:01.338Z,45.34
2018-09-25T16:31:35.320Z,45.35
2018-09-25T16:34:09.543Z,45.72
2018-09-25T16:36:43.239Z,45.87
2018-09-25T16:39:17.298Z,45.55
2018-09-25T16:41:51.165Z,45.79
2018-09-25T16:44:25.414Z,46.09
2018-09-25T16:46:59.326Z,46.17
2018-09-25T16:49:33.270Z,46.17
2018-09-25T16:52:07.203Z,46.14
2018-09-25T16:57:23.633Z,46.76
2018-09-25T16:59:57.474Z,46.50
2018-09-25T17:02:31.627Z,46.84
2018-09-25T17:05:05.328Z,46.98
2018-09-25T17:07:39.341Z,47.18
2018-09-25T17:10:13.203Z,47.26
2018-09-25T17:12:47.251Z,47.64
2018-09-25T17:15:21.336Z,47.71
2018-09-25T17:17:55.302Z,47.72
2018-09-25T17:20:29.120Z,47.71
2018-09-25T17:23:02.917Z,47.51
2018-09-25T17:25:37.192Z,47.76
2018-09-25T17:28:11.010Z,48.01
2018-09-25T17:30:44.844Z,48.67
2018-09-25T17:33:18.707Z,48.10
2018-09-25T17:35:53.004Z,48.22
2018-09-25T17:38:27.038Z,48.14
2018-09-25T17:41:01.103Z,47.68
2018-09-25T17:43:35.175Z,48.19
2018-09-25T17:46:09.019Z,47.94
2018-09-25T17:48:42.803Z,48.27
2018-09-25T17:51:16.806Z,48.47
2018-09-25T17:53:50.970Z,48.62
2018-09-25T17:56:25.321Z,48.69
2018-09-25T17:58:59.110Z,49.22
2018-09-25T18:01:33.465Z,48.93
2018-09-25T18:04:08.172Z,48.73
2018-09-25T18:06:42.689Z,48.81
2018-09-25T18:09:16.948Z,48.60
2018-09-25T18:11:51.422Z,49.24
2018-09-25T18:14:26.058Z,48.72
2018-09-25T18:17:00.166Z,49.58
2018-09-25T18:19:34.489Z,49.12
2018-09-25T18:22:08.257Z,49.37
2018-09-25T18:24:43.137Z,48.45
2018-09-25T18:27:16.940Z,48.48
2018-09-25T18:29:51.305Z,48.70
2018-09-25T18:32:25.326Z,48.96
2018-09-25T18:34:59.979Z,48.74
2018-09-25T18:37:34.122Z,48.75
2018-09-25T18:40:08.325Z,48.73
2018-09-25T18:42:42.470Z,48.72
2018-09-25T18:45:17.294Z,48.56
2018-09-25T18:47:51.669Z,49.19
2018-09-25T18:50:26.219Z,48.99
2018-09-25T18:53:00.832Z,48.69
2018-09-25T18:55:34.951Z,49.06
2018-09-25T18:58:09.565Z,48.85
2018-09-25T19:00:43.950Z,49.07
2018-09-25T19:03:18.096Z,49.16
2018-09-25T19:05:52.591Z,49.50
2018-09-25T19:08:32.577Z,49.56
2018-09-25T19:11:06.936Z,49.46
2018-09-25T19:13:41.194Z,49.29
2018-09-25T19:16:15.963Z,49.27
2018-09-25T19:18:50.329Z,50.06
2018-09-25T19:21:25.237Z,49.90
2018-09-25T19:23:59.349Z,50.05
2018-09-25T19:26:34.181Z,49.85
2018-09-25T19:29:08.167Z,50.82
2018-09-25T19:31:42.687Z,50.81
2018-09-25T19:34:17.228Z,50.73
2018-09-25T19:36:51.608Z,50.87
2018-09-25T19:39:25.663Z,50.96
2018-09-25T19:41:59.710Z,50.66
2018-09-25T19:44:33.701Z,50.38
2018-09-25T19:47:07.588Z,51.56
2018-09-25T19:49:42.217Z,51.46
2018-09-25T19:52:16.522Z,51.92
2018-09-25T19:54:50.829Z,52.14
2018-09-25T19:57:25.321Z,52.04
2018-09-25T19:59:59.456Z,52.07
2018-09-25T20:02:33.510Z,51.95
2018-09-25T20:05:07.832Z,52.68
2018-09-25T20:07:42.786Z,51.99
2018-09-25T20:10:17.645Z,52.68
2018-09-25T20:12:51.859Z,52.16
2018-09-25T20:15:25.894Z,52.73
2018-09-25T20:18:00.512Z,52.46
2018-09-25T20:20:34.686Z,52.55
2018-09-25T20:23:08.991Z,52.88
2018-09-25T20:25:43.383Z,53.25
2018-09-25T20:28:18.447Z,53.09
2018-09-25T20:30:53.355Z,53.87
2018-09-25T20:33:27.627Z,53.27
2018-09-25T20:36:01.845Z,53.71
2018-09-25T20:38:36.501Z,53.66
2018-09-25T20:41:10.874Z,53.51
2018-09-25T20:43:45.303Z,53.93
2018-09-25T20:46:19.576Z,54.09
2018-09-25T20:48:54.007Z,54.19
2018-09-25T20:51:28.285Z,53.66
2018-09-25T20:54:02.842Z,53.91
2018-09-25T20:56:36.659Z,53.78
2018-09-25T20:59:10.829Z,53.09
2018-09-25T21:01:45.188Z,53.29
2018-09-25T21:04:19.598Z,53.05
2018-09-25T21:06:53.998Z,52.81
2018-09-25T21:09:28.061Z,53.37
2018-09-25T21:12:02.015Z,52.89
2018-09-25T21:14:36.292Z,53.31
2018-09-25T21:17:10.724Z,53.43
2018-09-25T21:19:44.993Z,53.29
2018-09-25T21:22:19.109Z,53.31
2018-09-25T21:24:52.935Z,52.76
2018-09-25T21:27:27.097Z,52.51
2018-09-25T21:30:00.972Z,52.56
2018-09-25T21:32:34.840Z,52.84
2018-09-25T21:35:08.847Z,52.63
2018-09-25T21:37:42.640Z,52.21
2018-09-25T21:40:16.529Z,52.51
2018-09-25T21:42:49.960Z,52.54
2018-09-25T21:45:23.936Z,52.64
2018-09-25T21:47:57.777Z,52.75
2018-09-25T21:50:31.545Z,52.21
2018-09-25T21:53:05.194Z,52.78
2018-09-25T21:55:39.223Z,52.56
2018-09-25T21:58:13.021Z,53.10
2018-09-25T22:00:46.862Z,52.90
2018-09-25T22:03:20.664Z,53.44
2018-09-25T22:05:54.578Z,53.38
2018-09-25T22:08:28.351Z,53.07
2018-09-25T22:11:02.301Z,53.46
2018-09-25T22:13:36.052Z,53.61
2018-09-25T22:16:09.940Z,53.24
2018-09-25T22:18:43.644Z,53.35
2018-09-25T22:21:17.511Z,53.04
2018-09-25T22:23:51.354Z,53.13
2018-09-25T22:26:25.027Z,52.94
2018-09-25T22:28:58.859Z,52.79
2018-09-25T22:31:32.794Z,52.58
2018-09-25T22:34:06.446Z,53.18
2018-09-25T22:36:40.561Z,52.76
2018-09-25T22:39:15.172Z,52.68
2018-09-25T22:41:49.172Z,52.53
2018-09-25T22:44:23.046Z,52.48
2018-09-25T22:46:56.930Z,52.63
2018-09-25T22:49:30.618Z,52.65
2018-09-25T22:52:04.519Z,52.71
2018-09-25T22:54:38.810Z,52.92
2018-09-25T22:57:12.479Z,52.57
2018-09-25T22:59:46.320Z,52.71
2018-09-25T23:02:20.313Z,52.94
2018-09-25T23:04:53.917Z,53.09
2018-09-25T23:07:27.823Z,53.20
2018-09-25T23:10:01.380Z,53.59
2018-09-25T23:12:34.932Z,53.53
2018-09-25T23:15:08.774Z,53.11
2018-09-25T23:17:42.597Z,53.81
2018-09-25T23:20:16.208Z,53.81
2018-09-25T23:22:50.071Z,53.70
2018-09-25T23:25:23.789Z,53.35
2018-09-25T23:27:57.534Z,53.58
2018-09-25T23:30:31.275Z,53.45
2018-09-25T23:33:04.946Z,53.30
2018-09-25T23:35:38.656Z,53.71
2018-09-25T23:38:12.289Z,53.92
2018-09-25T23:40:45.957Z,53.44
2018-09-25T23:43:18.881Z,53.75
2018-09-25T23:46:55.089Z,53.35
2018-09-25T23:49:31.049Z,53.44
2018-09-25T23:52:09.991Z,53.32
2018-09-25T23:54:47.700Z,53.33
2018-09-25T23:57:21.272Z,53.15
